Time;durP1;ratioP1;P1;durP2;ratioP2;P2;SDS_P1;SDS_P2;PMS_P1;PMS_P2;Temp;Humidity;BMP_temperature;BMP_pressure;BME280_temperature;BME280_humidity;BME280_pressure;Samples;Min_cycle;Max_cycle;Signal;HPM_P1;HPM_P2
2021/01/30 00:05:28;;;;;;;96.27;45.13;;;;;;;-1.01;81.69;97013.03;4369053;80;21208;-87
2021/01/30 00:11:30;;;;;;;92.90;43.37;;;;;;;-1.02;81.72;97024.91;4373902;80;21200;-87
2021/01/30 00:17:31;;;;;;;84.07;38.60;;;;;;;-1.03;81.78;97028.70;4377987;80;21207;-86
2021/01/30 00:23:33;;;;;;;85.67;38.57;;;;;;;-1.12;81.83;97019.25;4373159;80;21194;-88
2021/01/30 00:29:36;;;;;;;83.50;38.20;;;;;;;-1.12;81.91;97015.22;4375653;80;21172;-87
2021/01/30 00:35:38;;;;;;;78.57;37.60;;;;;;;-1.09;81.91;97013.19;4372071;80;21327;-87
2021/01/30 00:41:43;;;;;;;88.30;40.13;;;;;;;-1.04;81.89;97020.44;4411460;80;21137;-87
2021/01/30 00:47:45;;;;;;;86.27;38.80;;;;;;;-1.04;81.92;97033.86;4407388;80;21201;-88
2021/01/30 00:53:48;;;;;;;84.47;37.23;;;;;;;-1.04;81.97;97041.92;4391627;80;21330;-87
2021/01/30 00:59:50;;;;;;;82.93;36.80;;;;;;;-1.04;82.00;97033.86;4393163;80;21538;-87
2021/01/30 01:05:53;;;;;;;81.60;37.37;;;;;;;-1.05;82.05;97028.25;4420470;79;21162;-87
2021/01/30 01:11:55;;;;;;;91.47;40.30;;;;;;;-1.02;82.16;97030.83;4399937;80;21832;-87
2021/01/30 01:17:56;;;;;;;80.73;37.97;;;;;;;-1.08;82.29;97037.01;4406852;80;21659;-87
2021/01/30 01:23:58;;;;;;;88.10;39.47;;;;;;;-1.08;82.21;97033.56;4410763;80;21763;-87
2021/01/30 01:30:00;;;;;;;87.87;40.33;;;;;;;-1.20;82.54;97020.20;4409646;80;21129;-86
2021/01/30 01:36:03;;;;;;;93.97;41.53;;;;;;;-1.12;82.74;97013.88;4397397;80;21158;-87
2021/01/30 01:42:13;;;;;;;94.73;42.83;;;;;;;-1.08;82.66;97006.13;4374307;80;21167;-87
2021/01/30 01:48:23;;;;;;;91.67;43.20;;;;;;;-1.01;82.73;97009.00;4377331;80;21592;-85
2021/01/30 01:54:45;;;;;;;;;;;;;;;;;;;;;
2021/01/30 02:01:14;;;;;;;92.57;42.40;;;;;;;-1.06;82.46;97007.13;4422714;78;27909;-87
2021/01/30 02:07:16;;;;;;;89.50;41.23;;;;;;;-1.15;82.88;97003.84;4273726;81;21318;-87
2021/01/30 02:13:25;;;;;;;89.13;41.30;;;;;;;-1.18;82.77;96994.58;4253202;82;21353;-87
2021/01/30 02:20:09;;;;;;;89.80;43.20;;;;;;;-1.18;82.88;96987.08;4253958;82;21231;-87
2021/01/30 02:26:50;;;;;;;96.57;44.57;;;;;;;-1.14;83.17;96982.59;4256478;82;21184;-88
2021/01/30 02:33:17;;;;;;;92.30;41.37;;;;;;;-1.09;83.17;96972.36;4250507;82;21715;-86
2021/01/30 02:39:32;;;;;;;82.03;39.47;;;;;;;-1.06;83.26;96969.52;4253795;82;21163;-88
2021/01/30 02:45:39;;;;;;;84.67;39.10;;;;;;;-1.05;83.20;96958.44;4255524;82;21168;-88
2021/01/30 02:51:49;;;;;;;89.73;41.20;;;;;;;-1.11;83.12;96939.70;4254583;82;21333;-88
2021/01/30 02:57:53;;;;;;;76.13;38.27;;;;;;;-1.06;83.41;96938.65;4240756;82;21758;-88
2021/01/30 03:04:01;;;;;;;84.50;38.63;;;;;;;-1.06;83.31;96942.67;4201817;83;21209;-89
2021/01/30 03:10:17;;;;;;;84.80;37.70;;;;;;;-1.11;83.34;96946.41;4230539;82;21156;-88
2021/01/30 03:16:23;;;;;;;82.60;38.93;;;;;;;-1.07;83.50;96941.12;4233591;83;21156;-88
2021/01/30 03:22:28;;;;;;;82.20;38.80;;;;;;;-1.00;83.72;96920.58;4234168;82;22283;-88
2021/01/30 03:28:30;;;;;;;79.63;38.27;;;;;;;-0.98;83.62;96906.80;4237078;83;21260;-88
2021/01/30 03:34:32;;;;;;;87.47;40.30;;;;;;;-0.98;83.73;96912.17;4234363;82;21671;-90
2021/01/30 03:40:34;;;;;;;84.20;39.77;;;;;;;-0.97;83.86;96903.01;4233550;82;21252;-88
2021/01/30 03:46:37;;;;;;;92.80;44.50;;;;;;;-1.00;83.87;96895.06;4232822;82;21782;-89
2021/01/30 03:52:48;;;;;;;91.03;42.07;;;;;;;-0.96;83.77;96897.28;4481303;77;22868;-87
2021/01/30 03:58:49;;;;;;;87.73;42.57;;;;;;;-1.10;84.04;96901.00;4221783;79;73430;-88
2021/01/30 04:04:51;;;;;;;83.67;41.50;;;;;;;-1.19;84.11;96878.15;4139553;84;21342;-87
2021/01/30 04:10:53;;;;;;;91.23;43.13;;;;;;;-1.21;84.21;96879.84;4149765;84;124716;-87
2021/01/30 04:16:55;;;;;;;83.77;40.83;;;;;;;-1.20;84.53;96881.39;4145124;84;21313;-88
2021/01/30 04:22:56;;;;;;;97.23;46.27;;;;;;;-1.18;84.70;96881.03;4146698;84;21199;-87
2021/01/30 04:28:58;;;;;;;97.53;46.03;;;;;;;-1.22;84.78;96867.52;4143206;85;21197;-87
2021/01/30 04:34:59;;;;;;;97.57;44.80;;;;;;;-1.21;84.62;96853.55;4153338;84;21207;-88
2021/01/30 04:41:37;;;;;;;97.07;47.00;;;;;;;-1.19;85.00;96845.93;4154698;83;21251;-87
2021/01/30 04:48:00;;;;;;;98.17;48.57;;;;;;;-1.15;85.21;96843.53;4126666;84;21389;-88
2021/01/30 04:54:32;;;;;;;107.37;48.93;;;;;;;-1.07;85.06;96827.01;4123048;85;21787;-88
2021/01/30 05:01:00;;;;;;;99.03;47.33;;;;;;;-1.01;85.05;96807.59;4122269;85;21192;-89
2021/01/30 05:07:22;;;;;;;82.00;43.27;;;;;;;-0.99;85.11;96806.68;4154377;84;21824;-89
2021/01/30 05:13:43;;;;;;;86.33;41.10;;;;;;;-1.05;84.98;96820.14;4156681;84;21650;-88
2021/01/30 05:19:50;;;;;;;101.33;44.60;;;;;;;-1.05;85.28;96814.02;4138524;83;21230;-89
2021/01/30 05:26:15;;;;;;;105.97;46.37;;;;;;;-1.02;85.36;96805.25;4569703;76;22980;-87
2021/01/30 05:32:22;;;;;;;93.47;37.73;;;;;;;-1.06;85.29;96812.44;4482193;78;21134;-89
2021/01/30 05:38:51;;;;;;;103.23;48.13;;;;;;;-1.05;85.40;96806.72;4490650;78;21629;-88
2021/01/30 05:45:19;;;;;;;104.33;49.17;;;;;;;-1.02;85.54;96806.05;4481279;78;21160;-89
2021/01/30 05:51:44;;;;;;;108.20;48.17;;;;;;;-0.97;85.48;96801.71;4402552;78;22401;-88
2021/01/30 05:57:49;;;;;;;115.60;52.10;;;;;;;-1.00;85.51;96798.97;4441757;78;21166;-88
2021/01/30 06:04:08;;;;;;;102.93;47.10;;;;;;;-1.02;85.43;96802.57;4445728;78;21164;-88
2021/01/30 06:10:31;;;;;;;105.17;45.70;;;;;;;-0.99;85.67;96799.17;4404258;78;21193;-89
2021/01/30 06:16:48;;;;;;;103.43;46.00;;;;;;;-0.96;85.59;96800.59;4440445;78;21152;-87
2021/01/30 06:23:04;;;;;;;101.57;43.40;;;;;;;-0.95;85.74;96786.03;4448465;78;21196;-89
2021/01/30 06:29:37;;;;;;;97.13;45.43;;;;;;;-0.87;85.79;96790.42;4512129;77;22969;-88
2021/01/30 06:35:40;;;;;;;99.00;44.90;;;;;;;-0.89;85.83;96798.63;4477102;78;21160;-88
2021/01/30 06:41:44;;;;;;;105.10;46.20;;;;;;;-0.88;85.98;96769.28;4475754;78;21669;-88
2021/01/30 06:47:50;;;;;;;101.33;45.90;;;;;;;-0.84;86.01;96766.88;4477297;78;21149;-89
2021/01/30 06:53:53;;;;;;;101.58;49.30;;;;;;;-0.82;86.20;96768.65;4480635;78;21287;-88
2021/01/30 06:59:59;;;;;;;116.07;49.20;;;;;;;-0.74;86.25;96758.25;4476222;78;21618;-88
2021/01/30 07:06:11;;;;;;;111.83;51.05;;;;;;;-0.71;86.16;96769.63;4477843;78;21197;-88
2021/01/30 07:12:45;;;;;;;112.37;52.47;;;;;;;-0.67;86.36;96750.87;4479585;78;21648;-89
2021/01/30 07:19:28;;;;;;;122.37;53.97;;;;;;;-0.62;86.38;96740.63;4470811;78;21172;-88
2021/01/30 07:25:41;;;;;;;120.87;53.60;;;;;;;-0.50;86.43;96732.39;4389337;79;21609;-88
2021/01/30 07:32:11;;;;;;;103.87;49.83;;;;;;;-0.38;86.45;96720.14;4342300;80;22306;-88
2021/01/30 07:38:30;;;;;;;112.97;50.90;;;;;;;-0.32;86.49;96706.60;4334754;80;21177;-87
2021/01/30 07:45:21;;;;;;;116.47;52.05;;;;;;;-0.24;86.48;96706.14;4383520;79;21383;-87
2021/01/30 07:51:28;;;;;;;139.03;62.87;;;;;;;-0.19;86.63;96701.23;4388480;79;22283;-87
2021/01/30 07:57:58;;;;;;;135.17;64.47;;;;;;;-0.15;86.79;96693.22;4334468;80;21338;-88
2021/01/30 08:04:08;;;;;;;120.65;54.00;;;;;;;-0.05;86.85;96688.00;4338817;80;21641;-87
2021/01/30 08:10:21;;;;;;;176.93;78.25;;;;;;;0.03;86.98;96690.25;4357273;80;21279;-87
2021/01/30 08:16:45;;;;;;;159.60;63.27;;;;;;;0.08;86.70;96682.44;4328524;81;21210;-86
2021/01/30 08:23:09;;;;;;;126.33;54.35;;;;;;;0.14;87.00;96666.97;4338235;81;21431;-85
2021/01/30 08:29:36;;;;;;;122.47;54.10;;;;;;;0.19;86.75;96664.53;4300612;81;21172;-84
2021/01/30 08:35:47;;;;;;;115.50;53.08;;;;;;;0.25;87.18;96655.00;4268172;81;21185;-85
2021/01/30 08:41:54;;;;;;;140.67;59.83;;;;;;;0.30;87.12;96674.28;4271058;81;21165;-85
2021/01/30 08:48:17;;;;;;;151.95;66.75;;;;;;;0.33;87.42;96668.77;4268485;82;21320;-83
2021/01/30 08:54:35;;;;;;;176.10;70.17;;;;;;;0.32;87.39;96665.29;4268616;81;21157;-84
2021/01/30 09:00:48;;;;;;;131.27;61.70;;;;;;;0.38;87.48;96677.84;4272867;81;21740;-84
2021/01/30 09:06:55;;;;;;;136.07;62.10;;;;;;;0.40;87.63;96669.63;4276492;82;22406;-85
2021/01/30 09:13:20;;;;;;;128.00;61.90;;;;;;;0.40;87.71;96670.97;4273360;81;21169;-85
2021/01/30 09:19:56;;;;;;;123.25;60.05;;;;;;;0.44;87.61;96671.03;4271050;81;21681;-85
2021/01/30 09:26:40;;;;;;;136.40;63.95;;;;;;;0.55;87.79;96669.25;4356285;80;21182;-84
2021/01/30 09:32:55;;;;;;;133.97;64.12;;;;;;;0.57;87.94;96666.95;4385292;80;21145;-86
2021/01/30 09:39:01;;;;;;;129.42;61.80;;;;;;;0.69;88.01;96663.45;4392112;79;21917;-86
2021/01/30 09:45:10;;;;;;;;;;;;;;;0.76;88.03;96668.94;4402715;79;21165;-86
2021/01/30 09:51:20;;;;;;;127.78;64.32;;;;;;;0.76;87.76;96672.19;4395222;79;20191;-87
2021/01/30 09:57:26;;;;;;;140.07;62.78;;;;;;;0.79;88.12;96671.45;4389210;80;21306;-88
2021/01/30 10:03:39;;;;;;;137.93;63.93;;;;;;;0.97;88.34;96656.28;4388328;79;21332;-86
2021/01/30 10:10:01;;;;;;;117.42;56.92;;;;;;;1.09;88.35;96664.10;4394422;79;21326;-86
2021/01/30 10:16:26;;;;;;;90.87;43.55;;;;;;;1.18;88.32;96659.97;4323007;81;21210;-86
2021/01/30 10:39:14;;;;;;;11.57;4.42;;;;;;;2.00;90.20;96673.58;4527920;77;22980;-87
2021/01/30 10:45:21;;;;;;;14.90;7.28;;;;;;;2.16;90.11;96673.49;4429689;78;21202;-88
2021/01/30 10:51:25;;;;;;;;;;;;;;;2.24;89.62;96698.04;4436887;78;21320;-89
2021/01/30 10:57:29;;;;;;;17.95;9.28;;;;;;;2.18;89.21;96742.73;4427688;78;20184;-88
2021/01/30 11:04:00;;;;;;;17.10;9.18;;;;;;;2.02;89.03;96746.26;4423909;78;21631;-88
2021/01/30 11:10:41;;;;;;;21.55;10.90;;;;;;;1.87;89.05;96770.79;4594262;75;22929;-86
2021/01/30 11:16:44;;;;;;;25.85;13.08;;;;;;;1.65;88.77;96760.38;4371316;77;212625;-89
2021/01/30 11:29:08;;;;;;;52.83;21.35;;;;;;;1.40;89.56;96873.91;4523955;77;22314;-88
2021/01/30 11:35:14;;;;;;;78.22;36.58;;;;;;;1.13;89.34;96943.80;4462644;78;21773;-88
2021/01/30 11:41:16;;;;;;;61.10;28.30;;;;;;;0.80;88.82;96893.27;4487911;78;21739;-89
2021/01/30 11:47:20;;;;;;;85.30;39.40;;;;;;;0.83;89.03;96921.42;4494691;77;21321;-87
2021/01/30 11:53:28;;;;;;;90.60;43.70;;;;;;;0.73;88.66;96928.75;4488342;78;21324;-87
2021/01/30 11:59:29;;;;;;;92.37;45.95;;;;;;;0.65;88.50;96968.25;4488333;78;21708;-87
2021/01/30 12:05:32;;;;;;;90.87;45.20;;;;;;;0.54;88.25;96996.91;4477042;78;21323;-87
2021/01/30 12:11:34;;;;;;;93.33;42.98;;;;;;;0.45;88.29;97019.24;4475227;78;21352;-87
2021/01/30 12:17:42;;;;;;;89.03;40.15;;;;;;;0.28;87.86;97051.98;4472072;78;21210;-87
2021/01/30 12:23:44;;;;;;;76.12;35.45;;;;;;;0.17;87.50;97086.53;4465847;78;21189;-87
2021/01/30 12:29:46;;;;;;;60.97;29.63;;;;;;;-0.04;86.88;97112.41;4440043;78;21190;-87
2021/01/30 12:35:49;;;;;;;54.35;25.65;;;;;;;-0.19;86.60;97118.02;4439381;78;21709;-87
2021/01/30 12:41:50;;;;;;;53.53;24.57;;;;;;;-0.30;85.83;97135.83;4445270;78;21178;-88
2021/01/30 12:47:52;;;;;;;49.33;24.03;;;;;;;-0.38;85.36;97140.05;4447176;78;21190;-87
2021/01/30 12:53:54;;;;;;;50.97;22.30;;;;;;;-0.47;85.04;97159.03;4444227;78;21599;-87
2021/01/30 12:59:56;;;;;;;48.20;20.47;;;;;;;-0.51;84.91;97185.61;4447509;78;21337;-87
2021/01/30 13:05:58;;;;;;;42.60;21.50;;;;;;;-0.50;84.73;97217.52;4439817;78;21510;-85
2021/01/30 13:12:00;;;;;;;41.50;20.03;;;;;;;-0.52;84.71;97238.58;4444703;78;21225;-86
2021/01/30 17:13:25;;;;;;;74.30;31.53;;;;;;;-1.86;81.91;97592.07;4588476;75;23283;-84
2021/01/30 17:19:27;;;;;;;75.53;32.30;;;;;;;-1.92;81.93;97598.75;4478228;78;21144;-84
2021/01/30 17:25:30;;;;;;;73.10;33.67;;;;;;;-1.84;81.75;97617.22;4480947;78;21153;-84
2021/01/30 17:31:31;;;;;;;80.57;32.77;;;;;;;-1.78;81.63;97633.34;4468764;78;21304;-84
2021/01/30 17:37:33;;;;;;;75.13;32.63;;;;;;;-1.70;81.53;97640.55;4475210;77;21318;-84
2021/01/30 17:43:34;;;;;;;78.60;31.17;;;;;;;-1.63;81.80;97645.61;4475157;78;21675;-86
2021/01/30 17:49:37;;;;;;;72.20;31.17;;;;;;;-1.61;81.21;97648.76;4478104;78;21133;-84
2021/01/30 17:55:38;;;;;;;58.50;26.17;;;;;;;-1.59;81.46;97644.41;4472963;77;21156;-84
2021/01/30 18:01:40;;;;;;;61.03;27.67;;;;;;;-1.55;81.02;97648.56;4484719;78;21271;-84
2021/01/30 18:07:42;;;;;;;65.10;28.97;;;;;;;-1.55;81.04;97655.27;4487492;78;21427;-85
2021/01/30 18:13:43;;;;;;;70.33;31.50;;;;;;;-1.58;80.87;97660.72;4481314;78;21161;-84
2021/01/30 18:19:45;;;;;;;67.90;31.47;;;;;;;-1.53;81.17;97651.72;4480271;78;21181;-84
2021/01/30 18:25:47;;;;;;;68.20;30.23;;;;;;;-1.56;80.97;97669.23;4479314;78;21174;-85
2021/01/30 18:31:49;;;;;;;65.20;28.37;;;;;;;-1.59;80.93;97669.90;4479837;78;21176;-84
2021/01/30 18:37:50;;;;;;;57.90;25.83;;;;;;;-1.63;80.88;97675.70;4483865;78;22131;-85
2021/01/30 18:43:52;;;;;;;59.37;25.47;;;;;;;-1.58;80.89;97678.17;4479273;78;21330;-85
2021/01/30 18:49:54;;;;;;;59.53;25.47;;;;;;;-1.57;81.10;97680.52;4355579;78;9999966;-85
2021/01/30 18:55:55;;;;;;;62.83;26.67;;;;;;;-1.58;80.83;97680.84;4488850;78;21159;-84
2021/01/30 19:01:58;;;;;;;69.63;29.23;;;;;;;-1.54;81.19;97685.80;4478698;78;21155;-83
2021/01/30 19:08:02;;;;;;;63.83;27.53;;;;;;;-1.53;81.05;97677.21;4485848;78;21165;-84
2021/01/30 19:14:05;;;;;;;65.97;28.63;;;;;;;-1.51;80.93;97673.08;4502371;76;21176;-84
2021/01/30 19:20:08;;;;;;;66.53;27.73;;;;;;;-1.52;81.18;97674.74;4482885;78;21157;-85
2021/01/30 19:26:09;;;;;;;65.90;28.87;;;;;;;-1.53;80.98;97676.63;4479421;78;21193;-84
2021/01/30 19:32:11;;;;;;;70.00;28.73;;;;;;;-1.55;80.98;97671.38;4478682;78;21181;-84
2021/01/30 19:38:16;;;;;;;63.63;29.47;;;;;;;-1.60;81.25;97679.07;4469412;78;21193;-85
2021/01/30 19:44:18;;;;;;;71.27;30.50;;;;;;;-1.61;81.07;97690.90;4460710;78;21164;-84
2021/01/30 19:50:26;;;;;;;67.40;28.23;;;;;;;-1.66;81.18;97702.61;4485210;78;21589;-85
2021/01/30 19:56:27;;;;;;;69.20;31.23;;;;;;;-1.72;81.13;97717.34;4489325;78;21117;-83
2021/01/30 20:02:29;;;;;;;68.20;30.40;;;;;;;-1.70;81.51;97725.06;4482595;78;21226;-84
2021/01/30 20:08:31;;;;;;;70.93;29.83;;;;;;;-1.71;81.52;97739.02;4481373;78;21283;-85
2021/01/30 20:14:33;;;;;;;66.37;28.53;;;;;;;-1.72;81.62;97742.03;4480874;78;21165;-85
2021/01/30 20:20:36;;;;;;;70.20;31.90;;;;;;;-1.73;81.52;97745.29;4478749;78;21307;-84
2021/01/30 20:26:39;;;;;;;64.60;28.77;;;;;;;-1.69;81.61;97744.86;4474811;78;21298;-84
2021/01/30 20:32:41;;;;;;;61.97;28.40;;;;;;;-1.69;81.46;97741.38;4476538;78;21310;-84
2021/01/30 20:38:53;;;;;;;58.13;26.07;;;;;;;-1.73;81.57;97734.55;4484490;78;21592;-84
2021/01/30 20:44:55;;;;;;;61.80;25.27;;;;;;;-1.75;81.90;97738.66;4485973;78;21196;-85
2021/01/30 20:50:57;;;;;;;58.40;25.50;;;;;;;-1.76;81.89;97745.15;4443548;78;21179;-85
2021/01/30 20:56:58;;;;;;;60.07;26.87;;;;;;;-1.83;82.05;97736.81;4494198;78;21188;-84
2021/01/30 21:09:20;;;;;;;72.13;29.17;;;;;;;-1.82;82.20;97743.19;4446776;79;22741;-83
2021/01/30 21:15:25;;;;;;;71.40;29.00;;;;;;;-1.94;82.46;97749.02;4377067;80;21201;-83
2021/01/30 21:21:27;;;;;;;82.57;32.57;;;;;;;-1.95;82.52;97751.48;4392224;80;21248;-83
2021/01/30 21:27:29;;;;;;;76.70;32.60;;;;;;;-1.93;82.66;97755.43;4375564;80;21358;-84
2021/01/30 21:33:30;;;;;;;82.37;33.60;;;;;;;-2.00;82.81;97759.16;4379579;80;21199;-83
2021/01/30 21:39:34;;;;;;;75.13;32.80;;;;;;;-1.89;82.98;97763.05;4378300;80;21297;-83
2021/01/30 21:45:35;;;;;;;82.03;36.37;;;;;;;-1.79;82.96;97763.23;4383488;80;21366;-84
2021/01/30 21:51:38;;;;;;;79.17;33.67;;;;;;;-1.78;82.84;97764.25;4382882;79;21214;-85
2021/01/30 21:57:39;;;;;;;86.40;35.57;;;;;;;-1.80;82.95;97766.46;4380588;80;21299;-85
2021/01/30 22:03:41;;;;;;;76.80;32.57;;;;;;;-1.88;82.94;97767.29;4381946;80;21194;-85
2021/01/30 22:09:44;;;;;;;70.53;31.07;;;;;;;-1.85;82.90;97770.66;4396343;80;21319;-84
2021/01/30 22:15:46;;;;;;;66.80;29.93;;;;;;;-1.83;82.70;97777.05;4402873;80;21193;-84
2021/01/30 22:21:49;;;;;;;72.73;28.57;;;;;;;-1.87;83.06;97778.81;4399427;80;21582;-83
2021/01/30 22:27:51;;;;;;;86.53;34.90;;;;;;;-1.78;82.92;97782.23;4406464;79;21231;-84
2021/01/30 22:33:52;;;;;;;88.77;37.00;;;;;;;-1.96;82.91;97768.69;4404018;80;21589;-84
2021/01/30 22:39:54;;;;;;;88.90;35.00;;;;;;;-1.94;83.35;97760.55;4399901;80;21596;-84
2021/01/30 22:45:57;;;;;;;83.57;32.67;;;;;;;-1.92;83.11;97763.70;4399452;80;21245;-84
2021/01/30 22:51:59;;;;;;;86.17;33.47;;;;;;;-1.86;82.77;97762.94;4404008;80;21254;-84
2021/01/30 22:58:01;;;;;;;84.23;32.00;;;;;;;-1.87;82.88;97758.16;4396899;80;22397;-84
2021/01/30 23:04:03;;;;;;;88.87;35.70;;;;;;;-1.84;82.79;97754.82;4399099;79;21158;-85
2021/01/30 23:10:09;;;;;;;90.87;37.10;;;;;;;-1.83;82.71;97763.63;4399299;80;21198;-85
2021/01/30 23:16:10;;;;;;;101.87;41.03;;;;;;;-1.86;82.68;97765.63;4399173;80;21169;-84
2021/01/30 23:22:12;;;;;;;110.67;42.23;;;;;;;-1.89;82.65;97770.30;4400931;80;21171;-85
2021/01/30 23:28:18;;;;;;;104.33;44.30;;;;;;;-1.89;82.86;97776.45;4395235;80;21193;-84
2021/01/30 23:34:20;;;;;;;101.73;42.10;;;;;;;-1.86;82.89;97780.38;4399268;80;21606;-84
2021/01/30 23:40:28;;;;;;;106.40;42.80;;;;;;;-1.86;82.81;97801.84;4399772;80;21168;-84
2021/01/30 23:46:32;;;;;;;104.67;37.93;;;;;;;-1.89;82.81;97801.14;4400591;80;21153;-84
2021/01/30 23:52:33;;;;;;;104.80;42.63;;;;;;;-1.86;83.05;97811.23;4399228;80;21150;-84
2021/01/30 23:58:35;;;;;;;107.63;41.70;;;;;;;-1.88;83.13;97819.59;4399172;80;21177;-84
